createdAt,value
2018-06-01T00:01:16.360Z,20.75
2018-06-01T00:03:44.642Z,21.70
2018-06-01T00:06:12.932Z,21.73
2018-06-01T00:08:40.434Z,22.40
2018-06-01T00:11:07.950Z,22.77
2018-06-01T00:13:35.455Z,23.10
2018-06-01T00:16:02.982Z,22.23
2018-06-01T00:18:30.479Z,21.58
2018-06-01T00:20:58.089Z,21.87
2018-06-01T00:23:25.588Z,21.97
2018-06-01T00:25:53.108Z,22.30
2018-06-01T00:28:20.635Z,22.62
2018-06-01T00:30:49.188Z,23.05
2018-06-01T00:33:16.714Z,21.83
2018-06-01T00:35:44.225Z,22.20
2018-06-01T00:38:11.814Z,22.87
2018-06-01T00:40:39.321Z,22.23
2018-06-01T00:43:06.839Z,22.33
2018-06-01T00:45:34.351Z,23.30
2018-06-01T00:48:01.885Z,23.75
2018-06-01T00:50:29.395Z,22.40
2018-06-01T00:52:57.675Z,23.10
2018-06-01T00:55:25.960Z,24.05
2018-06-01T00:57:53.456Z,23.60
2018-06-01T01:00:20.971Z,23.27
2018-06-01T01:02:49.234Z,23.70
2018-06-01T01:05:17.635Z,23.40
2018-06-01T01:07:45.130Z,24.17
2018-06-01T01:10:12.650Z,23.60
2018-06-01T01:12:40.153Z,24.58
2018-06-01T01:15:07.763Z,24.27
2018-06-01T01:17:35.258Z,23.80
2018-06-01T01:20:02.781Z,24.63
2018-06-01T01:22:30.295Z,24.80
2018-06-01T01:24:57.835Z,26.27
2018-06-01T01:27:25.343Z,25.00
2018-06-01T01:29:53.640Z,24.60
2018-06-01T01:32:21.139Z,24.77
2018-06-01T01:34:48.660Z,25.75
2018-06-01T01:37:21.938Z,24.67
2018-06-01T01:39:50.323Z,24.87
2018-06-01T01:42:17.829Z,24.92
2018-06-01T01:44:45.344Z,25.60
2018-06-01T01:47:12.875Z,26.40
2018-06-01T01:49:41.138Z,25.83
2018-06-01T01:52:08.666Z,24.48
2018-06-01T01:54:36.159Z,25.55
2018-06-01T01:57:03.679Z,25.58
2018-06-01T01:59:31.175Z,25.52
2018-06-01T02:01:58.703Z,27.40
2018-06-01T02:04:26.200Z,25.98
2018-06-01T02:06:54.503Z,26.85
2018-06-01T02:09:22.012Z,25.85
2018-06-01T02:11:49.617Z,26.55
2018-06-01T02:14:17.393Z,26.00
2018-06-01T02:16:44.891Z,27.08
2018-06-01T02:19:12.419Z,28.33
2018-06-01T02:21:39.918Z,27.60
2018-06-01T02:24:07.452Z,27.25
2018-06-01T02:26:34.948Z,26.50
2018-06-01T02:29:02.487Z,26.97
2018-06-01T02:31:30.001Z,26.35
2018-06-01T02:33:57.514Z,26.00
2018-06-01T02:36:25.107Z,27.33
2018-06-01T02:38:52.615Z,27.20
2018-06-01T02:41:20.234Z,26.60
2018-06-01T02:43:47.748Z,27.75
2018-06-01T02:46:15.335Z,28.38
2018-06-01T02:48:43.596Z,26.92
2018-06-01T02:51:11.907Z,27.62
2018-06-01T02:53:39.425Z,27.10
2018-06-01T02:56:07.708Z,27.17
2018-06-01T02:58:35.979Z,27.27
2018-06-01T03:01:03.492Z,26.25
2018-06-01T03:03:30.992Z,26.10
2018-06-01T03:06:00.027Z,26.60
2018-06-01T03:08:27.536Z,27.00
2018-06-01T03:10:55.048Z,27.37
2018-06-01T03:13:22.572Z,27.30
2018-06-01T03:15:50.832Z,29.00
2018-06-01T03:18:18.348Z,28.90
2018-06-01T03:20:45.876Z,28.10
2018-06-01T03:23:14.150Z,27.90
2018-06-01T03:25:42.431Z,27.73
2018-06-01T03:28:09.937Z,27.70
2018-06-01T03:30:37.454Z,25.95
2018-06-01T03:33:04.959Z,28.38
2018-06-01T03:35:32.474Z,27.45
2018-06-01T03:37:59.976Z,28.33
2018-06-01T03:40:27.594Z,27.60
2018-06-01T03:42:55.109Z,28.17
2018-06-01T03:45:22.637Z,27.90
2018-06-01T03:47:50.176Z,27.27
2018-06-01T03:50:17.722Z,28.03
2018-06-01T03:52:45.240Z,27.87
2018-06-01T03:55:12.754Z,28.25
2018-06-01T03:57:40.265Z,26.37
2018-06-01T04:00:07.779Z,26.75
2018-06-01T04:02:35.590Z,26.92
2018-06-01T04:05:03.190Z,27.50
2018-06-01T04:07:30.700Z,27.37
2018-06-01T04:09:58.194Z,28.80
2018-06-01T04:12:25.714Z,27.67
2018-06-01T04:14:53.238Z,27.60
2018-06-01T04:17:20.758Z,27.67
2018-06-01T04:19:49.031Z,26.02
2018-06-01T04:22:17.321Z,28.20
2018-06-01T04:24:44.823Z,28.17
2018-06-01T04:27:12.347Z,28.20
2018-06-01T04:29:39.852Z,28.02
2018-06-01T04:32:07.384Z,29.75
2018-06-01T04:34:34.887Z,29.58
2018-06-01T04:37:03.171Z,29.70
2018-06-01T04:39:31.571Z,28.42
2018-06-01T04:41:59.081Z,28.08
2018-06-01T04:44:26.603Z,28.90
2018-06-01T04:46:54.142Z,27.65
2018-06-01T04:49:21.677Z,28.65
2018-06-01T04:51:49.974Z,28.35
2018-06-01T04:54:17.496Z,29.58
2018-06-01T04:56:44.995Z,29.35
2018-06-01T04:59:12.517Z,30.20
2018-06-01T05:01:40.130Z,29.67
2018-06-01T05:04:07.676Z,30.65
2018-06-01T05:06:35.219Z,32.42
2018-06-01T05:09:03.513Z,32.80
2018-06-01T05:11:31.015Z,32.70
2018-06-01T05:13:58.541Z,32.15
2018-06-01T05:16:26.082Z,31.60
2018-06-01T05:18:53.607Z,34.72
2018-06-01T05:21:21.126Z,31.42
2018-06-01T05:23:48.674Z,29.80
2018-06-01T05:26:16.170Z,32.38
2018-06-01T05:28:43.674Z,31.15
2018-06-01T05:31:11.234Z,34.15
2018-06-01T05:33:38.794Z,34.75
2018-06-01T05:36:06.299Z,32.42
2018-06-01T05:38:33.806Z,29.73
2018-06-01T05:41:01.332Z,30.20
2018-06-01T05:43:28.851Z,29.48
2018-06-01T05:45:56.355Z,31.52
2018-06-01T05:48:24.656Z,32.08
2018-06-01T05:50:52.159Z,31.37
2018-06-01T05:53:19.650Z,33.17
2018-06-01T05:55:47.940Z,32.25
2018-06-01T05:58:28.096Z,31.58
2018-06-01T06:00:56.380Z,30.88
2018-06-01T06:03:23.896Z,31.70
2018-06-01T06:05:51.395Z,31.27
2018-06-01T06:08:18.919Z,32.70
2018-06-01T06:10:46.519Z,33.08
2018-06-01T06:13:14.084Z,34.00
2018-06-01T06:15:41.560Z,35.63
2018-06-01T06:18:09.090Z,36.20
2018-06-01T06:20:37.371Z,35.15
2018-06-01T06:23:05.080Z,36.30
2018-06-01T06:25:32.594Z,36.42
2018-06-01T06:28:00.144Z,39.20
2018-06-01T06:30:27.660Z,45.10
2018-06-01T06:32:55.154Z,45.80
2018-06-01T06:35:23.446Z,45.77
2018-06-01T06:37:50.950Z,44.58
2018-06-01T06:40:18.467Z,41.77
2018-06-01T06:42:45.966Z,42.63
2018-06-01T06:45:13.511Z,41.13
2018-06-01T06:47:41.068Z,39.03
2018-06-01T06:50:08.556Z,39.60
2018-06-01T06:52:36.094Z,39.13
2018-06-01T06:55:03.607Z,38.95
2018-06-01T06:57:31.122Z,39.92
2018-06-01T06:59:58.670Z,39.72
2018-06-01T07:02:26.173Z,38.90
2018-06-01T07:04:54.440Z,38.22
2018-06-01T07:07:22.735Z,37.63
2018-06-01T07:09:50.256Z,36.15
2018-06-01T07:12:17.762Z,36.03
2018-06-01T07:14:45.302Z,35.55
2018-06-01T07:17:13.567Z,35.92
2018-06-01T07:19:41.846Z,36.00
2018-06-01T07:22:10.131Z,36.15
2018-06-01T07:24:38.395Z,34.08
2018-06-01T07:27:06.787Z,33.10
2018-06-01T07:29:35.048Z,34.17
2018-06-01T07:32:03.320Z,33.33
2018-06-01T07:34:30.842Z,33.50
2018-06-01T07:36:58.334Z,33.33
2018-06-01T07:39:25.870Z,33.75
2018-06-01T07:41:53.358Z,32.77
2018-06-01T07:44:21.632Z,33.93
2018-06-01T07:46:49.956Z,33.93
2018-06-01T07:49:17.471Z,34.53
2018-06-01T07:51:45.747Z,38.87
2018-06-01T07:54:14.016Z,42.05
2018-06-01T07:56:41.538Z,41.63
2018-06-01T07:59:09.050Z,44.45
2018-06-01T08:01:37.321Z,43.38
2018-06-01T08:04:05.615Z,43.75
2018-06-01T08:06:33.122Z,44.08
2018-06-01T08:09:00.722Z,44.80
2018-06-01T08:11:28.239Z,43.23
2018-06-01T08:13:55.743Z,43.00
2018-06-01T08:16:23.271Z,42.78
2018-06-01T08:18:50.788Z,40.67
2018-06-01T08:21:18.290Z,42.00
2018-06-01T08:23:45.815Z,43.28
2018-06-01T08:26:13.358Z,42.15
2018-06-01T08:28:40.860Z,43.30
2018-06-01T08:31:08.355Z,44.03
2018-06-01T08:33:35.881Z,44.72
2018-06-01T08:36:03.471Z,45.17
2018-06-01T08:38:30.986Z,46.60
2018-06-01T08:40:58.494Z,45.83
2018-06-01T08:43:26.038Z,47.10
2018-06-01T08:45:54.311Z,46.43
2018-06-01T08:48:22.890Z,52.10
2018-06-01T08:50:51.178Z,48.90
2018-06-01T08:53:18.680Z,48.83
2018-06-01T08:55:46.215Z,49.55
2018-06-01T08:58:13.723Z,50.75
2018-06-01T09:00:41.218Z,51.95
2018-06-01T09:03:08.746Z,50.50
2018-06-01T09:05:36.246Z,50.78
2018-06-01T09:08:03.747Z,50.03
2018-06-01T09:10:31.251Z,51.30
2018-06-01T09:12:58.779Z,50.97
2018-06-01T09:15:26.284Z,49.50
2018-06-01T09:17:53.819Z,50.67
2018-06-01T09:20:21.337Z,50.00
2018-06-01T09:22:48.859Z,51.20
2018-06-01T09:25:16.400Z,52.90
2018-06-01T09:27:43.939Z,53.13
2018-06-01T09:30:12.209Z,50.37
2018-06-01T09:32:39.703Z,49.70
2018-06-01T09:35:07.218Z,50.97
2018-06-01T09:37:34.710Z,48.53
2018-06-01T09:40:02.242Z,48.58
2018-06-01T09:42:29.824Z,48.72
2018-06-01T09:44:57.328Z,50.28
2018-06-01T09:47:24.843Z,49.40
2018-06-01T09:49:52.355Z,47.50
2018-06-01T09:52:19.855Z,50.43
2018-06-01T09:54:47.382Z,49.33
2018-06-01T09:57:15.657Z,50.15
2018-06-01T09:59:43.211Z,47.05
2018-06-01T10:02:10.723Z,48.72
2018-06-01T10:04:38.271Z,47.72
2018-06-01T10:07:05.793Z,48.70
2018-06-01T10:09:33.389Z,47.90
2018-06-01T10:12:00.915Z,48.90
2018-06-01T10:14:28.413Z,47.58
2018-06-01T10:16:55.927Z,49.92
2018-06-01T10:19:23.435Z,48.22
2018-06-01T10:21:50.940Z,47.85
2018-06-01T10:24:18.543Z,49.25
2018-06-01T10:26:46.042Z,47.25
2018-06-01T10:29:13.574Z,48.20
2018-06-01T10:31:41.086Z,47.80
2018-06-01T10:34:08.647Z,47.30
2018-06-01T10:36:36.183Z,49.10
2018-06-01T10:39:03.683Z,47.78
2018-06-01T10:41:31.978Z,51.60
2018-06-01T10:43:59.485Z,49.22
2018-06-01T10:46:26.989Z,46.50
2018-06-01T10:48:54.500Z,48.33
2018-06-01T10:51:21.995Z,46.78
2018-06-01T10:53:49.514Z,47.80
2018-06-01T10:56:17.031Z,49.60
2018-06-01T10:58:44.555Z,51.10
2018-06-01T11:01:12.828Z,50.28
2018-06-01T11:03:41.117Z,46.53
2018-06-01T11:06:09.403Z,47.22
2018-06-01T11:08:36.973Z,44.30
2018-06-01T11:11:04.471Z,42.92
2018-06-01T11:13:31.980Z,41.35
2018-06-01T11:15:59.511Z,40.38
2018-06-01T11:18:27.812Z,39.97
2018-06-01T11:20:55.308Z,40.03
2018-06-01T11:23:22.841Z,38.03
2018-06-01T11:25:50.391Z,38.75
2018-06-01T11:28:17.889Z,40.83
2018-06-01T11:30:45.507Z,41.28
2018-06-01T11:33:13.029Z,42.50
2018-06-01T11:35:40.576Z,41.45
2018-06-01T11:38:08.079Z,42.13
2018-06-01T11:40:35.579Z,43.85
2018-06-01T11:43:03.102Z,42.28
2018-06-01T11:45:30.659Z,41.90
2018-06-01T11:47:58.173Z,42.03
2018-06-01T11:50:25.680Z,42.38
2018-06-01T11:52:54.154Z,41.45
2018-06-01T11:55:21.646Z,36.53
2018-06-01T11:57:49.171Z,39.00
2018-06-01T12:00:16.666Z,38.47
2018-06-01T12:02:44.197Z,40.38
2018-06-01T12:05:11.698Z,38.38
2018-06-01T12:07:39.247Z,37.42
2018-06-01T12:10:06.762Z,39.47
2018-06-01T12:12:34.264Z,38.00
2018-06-01T12:15:01.794Z,36.35
2018-06-01T12:17:29.359Z,37.35
2018-06-01T12:19:57.604Z,34.63
2018-06-01T12:22:25.999Z,34.78
2018-06-01T12:24:53.500Z,33.97
2018-06-01T12:27:21.010Z,34.80
2018-06-01T12:29:48.511Z,39.17
2018-06-01T12:32:16.040Z,39.70
2018-06-01T12:34:43.557Z,39.85
2018-06-01T12:37:11.838Z,37.22
2018-06-01T12:39:40.128Z,39.00
2018-06-01T12:42:08.394Z,36.35
2018-06-01T12:44:36.694Z,35.85
2018-06-01T12:47:04.255Z,35.53
2018-06-01T12:49:31.770Z,34.45
2018-06-01T12:51:59.367Z,33.88
2018-06-01T12:54:26.935Z,32.88
2018-06-01T12:56:54.471Z,30.67
2018-06-01T12:59:22.743Z,31.17
2018-06-01T13:01:51.014Z,30.23
2018-06-01T13:04:19.291Z,29.80
2018-06-01T13:06:47.591Z,28.15
2018-06-01T13:09:15.106Z,29.87
2018-06-01T13:11:42.612Z,32.33
2018-06-01T13:14:10.159Z,25.90
2018-06-01T13:16:37.675Z,30.98
2018-06-01T13:19:05.551Z,27.55
2018-06-01T13:21:33.143Z,28.70
2018-06-01T13:24:01.428Z,29.15
2018-06-01T13:26:28.980Z,32.10
2018-06-01T13:28:56.483Z,33.63
2018-06-01T13:31:23.984Z,34.58
2018-06-01T13:33:52.271Z,33.70
2018-06-01T13:36:20.548Z,31.12
2018-06-01T13:38:48.087Z,34.17
2018-06-01T13:41:16.504Z,33.20
2018-06-01T13:43:44.013Z,29.23
2018-06-01T13:46:12.333Z,30.27
2018-06-01T13:48:39.847Z,31.67
2018-06-01T13:51:07.352Z,30.40
2018-06-01T13:53:34.888Z,29.80
2018-06-01T13:56:03.162Z,31.37
2018-06-01T13:58:31.439Z,28.23
2018-06-01T14:00:59.718Z,31.00
2018-06-01T14:03:28.107Z,30.10
2018-06-01T14:05:55.622Z,31.30
2018-06-01T14:08:23.138Z,33.53
2018-06-01T14:10:50.683Z,33.00
2018-06-01T14:13:18.963Z,34.23
2018-06-01T14:15:46.533Z,34.80
2018-06-01T14:18:14.064Z,34.47
2018-06-01T14:20:42.325Z,34.53
2018-06-01T14:23:09.915Z,33.20
2018-06-01T14:25:37.471Z,35.10
2018-06-01T14:28:05.029Z,36.78
2018-06-01T14:30:33.321Z,36.17
2018-06-01T14:33:00.885Z,37.40
2018-06-01T14:35:28.393Z,37.38
2018-06-01T14:37:55.906Z,37.00
2018-06-01T14:40:23.413Z,38.15
2018-06-01T14:42:50.943Z,36.43
2018-06-01T14:45:18.439Z,38.30
2018-06-01T14:47:46.703Z,39.10
2018-06-01T14:50:15.015Z,43.57
2018-06-01T14:52:42.537Z,43.50
2018-06-01T14:55:10.119Z,45.80
2018-06-01T14:57:37.675Z,46.53
2018-06-01T15:00:05.947Z,46.70
2018-06-01T15:02:34.215Z,44.55
2018-06-01T15:05:01.770Z,47.28
2018-06-01T15:07:29.298Z,45.90
2018-06-01T15:09:56.802Z,42.88
2018-06-01T15:12:25.080Z,45.20
2018-06-01T15:14:53.404Z,43.17
2018-06-01T15:17:20.895Z,44.00
2018-06-01T15:19:49.915Z,46.03
2018-06-01T15:22:18.199Z,48.00
2018-06-01T15:24:45.763Z,47.65
2018-06-01T15:27:13.281Z,47.30
2018-06-01T15:29:40.786Z,44.88
2018-06-01T15:32:08.305Z,40.88
2018-06-01T15:34:35.996Z,38.50
2018-06-01T15:37:03.563Z,38.60
2018-06-01T15:39:31.080Z,40.10
2018-06-01T15:41:58.608Z,43.28
2018-06-01T15:44:26.102Z,41.58
2018-06-01T15:46:53.599Z,43.38
2018-06-01T15:49:21.112Z,43.10
2018-06-01T15:51:48.626Z,44.33
2018-06-01T15:54:16.923Z,43.10
2018-06-01T15:56:44.421Z,42.07
2018-06-01T15:59:12.711Z,40.60
2018-06-01T16:01:41.019Z,35.60
2018-06-01T16:04:08.534Z,28.40
2018-06-01T16:06:36.804Z,25.42
2018-06-01T16:09:06.003Z,23.83
2018-06-01T16:11:34.261Z,25.95
2018-06-01T16:14:01.782Z,27.62
2018-06-01T16:16:29.291Z,27.13
2018-06-01T16:18:57.571Z,24.70
2018-06-01T16:21:25.963Z,23.40
2018-06-01T16:23:54.227Z,26.90
2018-06-01T16:26:22.524Z,33.13
2018-06-01T16:28:50.027Z,39.30
2018-06-01T16:31:17.681Z,42.80
2018-06-01T16:33:45.205Z,42.08
2018-06-01T16:36:12.772Z,42.00
2018-06-01T16:38:40.276Z,40.67
2018-06-01T16:41:07.790Z,41.10
2018-06-01T16:43:35.322Z,40.72
2018-06-01T16:46:03.611Z,40.60
2018-06-01T16:48:31.110Z,43.43
2018-06-01T16:50:58.636Z,44.00
2018-06-01T16:53:26.149Z,47.17
2018-06-01T16:55:53.674Z,49.63
2018-06-01T16:58:21.208Z,46.63
2018-06-01T17:00:48.712Z,49.13
2018-06-01T17:03:16.225Z,50.10
2018-06-01T17:05:43.740Z,50.03
2018-06-01T17:08:11.276Z,50.55
2018-06-01T17:10:38.781Z,51.75
2018-06-01T17:13:07.055Z,52.03
2018-06-01T17:15:35.373Z,54.83
2018-06-01T17:18:02.875Z,53.70
2018-06-01T17:20:31.164Z,54.53
2018-06-01T17:22:59.480Z,56.42
2018-06-01T17:25:26.987Z,58.60
2018-06-01T17:27:55.271Z,57.25
2018-06-01T17:30:23.583Z,59.42
2018-06-01T17:32:51.099Z,59.97
2018-06-01T17:35:18.598Z,59.92
2018-06-01T17:37:46.115Z,59.15
2018-06-01T17:40:13.619Z,55.75
2018-06-01T17:42:41.136Z,54.35
2018-06-01T17:45:09.411Z,53.50
2018-06-01T17:47:37.704Z,59.10
2018-06-01T17:50:05.978Z,58.57
2018-06-01T17:52:34.270Z,55.40
2018-06-01T17:55:02.506Z,52.85
2018-06-01T17:57:30.015Z,51.53
2018-06-01T17:59:57.574Z,49.90
2018-06-01T18:02:25.810Z,47.73
2018-06-01T18:04:54.114Z,48.47
2018-06-01T18:07:21.611Z,48.10
2018-06-01T18:09:49.107Z,49.80
2018-06-01T18:12:17.395Z,49.55
2018-06-01T18:14:45.663Z,48.53
2018-06-01T18:17:13.951Z,50.40
2018-06-01T18:19:41.463Z,48.87
2018-06-01T18:22:08.960Z,48.17
2018-06-01T18:24:37.254Z,50.47
2018-06-01T18:27:04.768Z,51.70
2018-06-01T18:29:32.270Z,50.12
2018-06-01T18:31:59.778Z,47.97
2018-06-01T18:34:28.131Z,43.22
2018-06-01T18:36:55.669Z,42.30
2018-06-01T18:39:23.168Z,41.27
2018-06-01T18:41:50.668Z,42.57
2018-06-01T18:44:18.195Z,43.30
2018-06-01T18:46:46.596Z,44.15
2018-06-01T18:49:14.889Z,46.53
2018-06-01T18:51:42.404Z,47.90
2018-06-01T18:54:11.437Z,48.03
2018-06-01T18:56:38.976Z,51.05
2018-06-01T18:59:06.470Z,54.03
2018-06-01T19:01:33.983Z,57.03
2018-06-01T19:04:02.268Z,56.50
2018-06-01T19:06:30.530Z,59.63
2018-06-01T19:08:58.054Z,59.05
2018-06-01T19:11:25.552Z,63.77
2018-06-01T19:13:53.839Z,62.90
2018-06-01T19:16:22.102Z,60.50
2018-06-01T19:18:49.648Z,61.40
2018-06-01T19:21:17.154Z,63.20
2018-06-01T19:23:44.777Z,61.70
2018-06-01T19:26:12.262Z,67.55
2018-06-01T19:28:40.541Z,61.37
2018-06-01T19:31:08.058Z,62.88
2018-06-01T19:33:35.571Z,64.07
2018-06-01T19:36:03.106Z,61.53
2018-06-01T19:38:32.263Z,61.67
2018-06-01T19:40:59.774Z,61.63
2018-06-01T19:43:27.293Z,59.33
2018-06-01T19:45:54.808Z,57.15
2018-06-01T19:48:22.330Z,57.95
2018-06-01T19:50:50.599Z,57.40
2018-06-01T19:53:18.119Z,57.67
2018-06-01T19:55:45.628Z,58.65
2018-06-01T19:58:13.901Z,57.50
2018-06-01T20:00:42.195Z,57.30
2018-06-01T20:03:09.709Z,55.97
2018-06-01T20:05:38.736Z,53.30
2018-06-01T20:08:07.020Z,51.70
2018-06-01T20:10:34.583Z,49.30
2018-06-01T20:13:02.111Z,50.40
2018-06-01T20:15:29.712Z,48.28
2018-06-01T20:17:57.219Z,49.03
2018-06-01T20:20:24.929Z,48.50
2018-06-01T20:22:52.485Z,51.05
2018-06-01T20:25:19.991Z,49.83
2018-06-01T20:27:47.512Z,48.60
2018-06-01T20:30:15.032Z,49.75
2018-06-01T20:32:43.315Z,49.90
2018-06-01T20:35:11.600Z,48.90
2018-06-01T20:37:39.891Z,49.55
2018-06-01T20:40:07.391Z,49.78
2018-06-01T20:42:34.938Z,49.65
2018-06-01T20:45:02.463Z,48.35
2018-06-01T20:47:29.973Z,51.45
2018-06-01T20:49:57.493Z,53.20
2018-06-01T20:52:24.997Z,50.53
2018-06-01T20:54:52.519Z,51.27
2018-06-01T20:57:20.042Z,49.23
2018-06-01T20:59:48.310Z,50.30
2018-06-01T21:02:16.599Z,49.75
2018-06-01T21:04:44.863Z,51.33
2018-06-01T21:07:13.163Z,50.03
2018-06-01T21:09:40.716Z,50.60
2018-06-01T21:12:08.290Z,49.47
2018-06-01T21:14:35.802Z,50.03
2018-06-01T21:17:03.395Z,51.00
2018-06-01T21:19:31.062Z,50.73
2018-06-01T21:21:58.574Z,50.75
2018-06-01T21:24:26.864Z,52.62
2018-06-01T21:26:54.387Z,53.00
2018-06-01T21:29:21.895Z,49.33
2018-06-01T21:31:50.166Z,49.83
2018-06-01T21:34:18.452Z,51.97
2018-06-01T21:36:46.762Z,52.50
2018-06-01T21:39:14.299Z,50.50
2018-06-01T21:41:41.813Z,49.50
2018-06-01T21:44:09.327Z,51.63
2018-06-01T21:46:36.828Z,51.03
2018-06-01T21:49:04.348Z,50.38
2018-06-01T21:51:31.854Z,48.33
2018-06-01T21:53:59.366Z,48.10
2018-06-01T21:56:26.860Z,49.73
2018-06-01T21:58:54.466Z,48.55
2018-06-01T22:01:22.729Z,47.95
2018-06-01T22:03:51.002Z,47.80
2018-06-01T22:06:19.278Z,48.92
2018-06-01T22:08:47.562Z,48.47
2018-06-01T22:11:15.111Z,46.17
2018-06-01T22:13:43.388Z,47.08
2018-06-01T22:16:11.709Z,46.30
2018-06-01T22:18:39.233Z,46.22
2018-06-01T22:21:06.739Z,44.65
2018-06-01T22:23:34.238Z,45.63
2018-06-01T22:26:02.518Z,45.10
2018-06-01T22:28:30.789Z,44.53
2018-06-01T22:30:59.074Z,44.30
2018-06-01T22:33:27.336Z,45.17
2018-06-01T22:35:55.625Z,44.83
2018-06-01T22:38:23.124Z,45.65
2018-06-01T22:40:50.658Z,45.97
2018-06-01T22:43:18.162Z,44.87
2018-06-01T22:45:45.720Z,45.42
2018-06-01T22:48:13.223Z,46.45
2018-06-01T22:50:40.723Z,43.22
2018-06-01T22:53:08.252Z,44.10
2018-06-01T22:55:35.767Z,43.50
2018-06-01T22:58:04.071Z,43.05
2018-06-01T23:00:32.492Z,42.50
2018-06-01T23:02:59.988Z,44.17
2018-06-01T23:05:28.261Z,42.90
2018-06-01T23:07:55.778Z,43.00
2018-06-01T23:10:23.279Z,42.62
2018-06-01T23:12:51.685Z,42.33
2018-06-01T23:15:19.951Z,40.88
2018-06-01T23:17:48.226Z,42.35
2018-06-01T23:20:16.617Z,42.00
2018-06-01T23:22:44.143Z,39.17
2018-06-01T23:25:11.638Z,40.13
2018-06-01T23:27:39.166Z,39.27
2018-06-01T23:30:07.444Z,38.88
2018-06-01T23:32:35.703Z,38.63
2018-06-01T23:35:03.243Z,39.25
2018-06-01T23:37:30.747Z,38.97
2018-06-01T23:39:59.061Z,41.25
2018-06-01T23:42:26.554Z,40.97
2018-06-01T23:44:54.060Z,40.47
2018-06-01T23:47:21.577Z,38.97
2018-06-01T23:49:49.086Z,40.20
2018-06-01T23:52:16.626Z,39.63
2018-06-01T23:54:44.126Z,40.33
2018-06-01T23:57:11.626Z,41.33
2018-06-01T23:59:39.916Z,39.72
